Time;durP1;ratioP1;P1;durP2;ratioP2;P2;SDS_P1;SDS_P2;PMS_P1;PMS_P2;Temp;Humidity;BMP_temperature;BMP_pressure;BME280_temperature;BME280_humidity;BME280_pressure;Samples;Min_cycle;Max_cycle;Signal;HPM_P1;HPM_P2
2022/03/29 00:00:41;;;;;;;41.25;18.92;;;;;;;;;;5070640;28;20420;-65
2022/03/29 00:03:08;;;;;;;33.30;18.52;;;;;;;;;;5070470;28;20033;-65
2022/03/29 00:05:35;;;;;;;45.95;20.67;;;;;;;;;;5071125;28;20479;-65
2022/03/29 00:08:01;;;;;;;42.33;17.73;;;;;;;;;;5070725;28;20185;-65
2022/03/29 00:10:28;;;;;;;44.90;18.90;;;;;;;;;;5070627;28;20037;-65
2022/03/29 00:12:54;;;;;;;38.00;17.52;;;;;;;;;;5070517;28;20028;-66
2022/03/29 00:15:21;;;;;;;35.08;16.90;;;;;;;;;;5070703;28;20036;-65
2022/03/29 00:17:47;;;;;;;41.20;18.20;;;;;;;;;;5070507;28;20271;-65
2022/03/29 00:20:14;;;;;;;40.50;17.58;;;;;;;;;;5070902;28;20461;-65
2022/03/29 00:22:41;;;;;;;40.45;18.55;;;;;;;;;;5070458;28;20036;-65
2022/03/29 00:25:07;;;;;;;33.45;18.02;;;;;;;;;;5070086;28;20100;-65
2022/03/29 00:27:37;;;;;;;30.50;16.35;;;;;;;;;;5071575;28;20032;-65
2022/03/29 00:30:04;;;;;;;33.70;16.55;;;;;;;;;;5074259;28;20036;-65
2022/03/29 00:32:31;;;;;;;40.20;16.67;;;;;;;;;;5074627;28;20032;-65
2022/03/29 00:34:57;;;;;;;39.85;18.25;;;;;;;;;;5074196;28;20028;-65
2022/03/29 00:37:23;;;;;;;33.05;16.85;;;;;;;;;;5073980;28;20032;-65
2022/03/29 00:39:49;;;;;;;46.67;18.60;;;;;;;;;;5074219;28;20033;-65
2022/03/29 00:42:15;;;;;;;42.35;16.73;;;;;;;;;;5074460;28;20051;-65
2022/03/29 00:44:42;;;;;;;40.05;17.58;;;;;;;;;;5074232;28;20028;-65
2022/03/29 00:47:08;;;;;;;43.80;16.33;;;;;;;;;;5073903;28;20458;-65
2022/03/29 00:49:34;;;;;;;32.15;15.52;;;;;;;;;;5074635;28;20119;-65
2022/03/29 00:52:01;;;;;;;38.13;16.70;;;;;;;;;;5073737;28;20029;-65
2022/03/29 00:54:29;;;;;;;32.25;15.98;;;;;;;;;;5074196;28;20033;-65
2022/03/29 00:56:59;;;;;;;36.10;16.42;;;;;;;;;;5073908;28;20021;-65
2022/03/29 00:59:26;;;;;;;38.25;18.45;;;;;;;;;;5073930;28;20036;-65
2022/03/29 01:01:52;;;;;;;37.17;16.42;;;;;;;;;;5072860;28;20025;-65
2022/03/29 01:04:18;;;;;;;38.83;16.55;;;;;;;;;;5073944;28;20381;-65
2022/03/29 01:06:44;;;;;;;40.55;17.80;;;;;;;;;;5073693;28;20043;-65
2022/03/29 01:09:14;;;;;;;34.13;15.63;;;;;;;;;;5073278;28;20031;-65
2022/03/29 01:11:40;;;;;;;32.72;16.58;;;;;;;;;;5073879;28;20025;-65
2022/03/29 01:14:06;;;;;;;41.10;17.38;;;;;;;;;;5073467;28;20047;-65
2022/03/29 01:19:18;;;;;;;30.33;18.08;;;;;;;;;;5073274;28;20044;-65
2022/03/29 01:21:49;;;;;;;27.30;14.30;;;;;;;;;;5073384;28;20427;-65
2022/03/29 01:24:16;;;;;;;33.88;16.90;;;;;;;;;;5073426;28;20171;-65
2022/03/29 01:26:42;;;;;;;35.08;15.32;;;;;;;;;;5073226;28;20028;-65
2022/03/29 01:29:08;;;;;;;31.83;15.18;;;;;;;;;;5073086;28;20043;-65
2022/03/29 01:31:34;;;;;;;36.00;15.30;;;;;;;;;;5073548;28;20042;-65
2022/03/29 01:34:00;;;;;;;42.50;15.70;;;;;;;;;;5073242;28;20399;-65
2022/03/29 01:36:28;;;;;;;36.78;16.00;;;;;;;;;;5073063;28;20036;-65
2022/03/29 01:38:54;;;;;;;36.13;15.50;;;;;;;;;;5072334;28;20396;-65
2022/03/29 01:41:20;;;;;;;29.80;15.30;;;;;;;;;;5072896;28;20470;-65
2022/03/29 01:43:46;;;;;;;35.47;15.88;;;;;;;;;;5073544;28;20020;-65
2022/03/29 01:46:12;;;;;;;43.13;16.70;;;;;;;;;;5073046;28;20028;-65
2022/03/29 01:48:39;;;;;;;35.45;15.63;;;;;;;;;;5071906;28;20066;-65
2022/03/29 01:51:06;;;;;;;32.10;14.07;;;;;;;;;;5072272;28;20055;-65
2022/03/29 01:53:32;;;;;;;37.92;15.90;;;;;;;;;;5072882;28;20028;-65
2022/03/29 01:55:59;;;;;;;32.63;15.55;;;;;;;;;;5072987;28;20025;-65
2022/03/29 01:58:26;;;;;;;35.10;15.07;;;;;;;;;;5072813;28;20036;-65
2022/03/29 02:00:52;;;;;;;33.90;15.10;;;;;;;;;;5072825;28;20052;-65
2022/03/29 02:03:19;;;;;;;34.90;15.98;;;;;;;;;;5072460;28;20435;-65
2022/03/29 02:05:45;;;;;;;37.15;17.40;;;;;;;;;;5072413;28;20392;-65
2022/03/29 02:08:11;;;;;;;31.67;15.05;;;;;;;;;;5072719;28;20473;-65
2022/03/29 02:10:38;;;;;;;34.00;14.85;;;;;;;;;;5072740;28;20059;-65
2022/03/29 02:13:04;;;;;;;26.83;14.57;;;;;;;;;;5072230;28;20099;-65
2022/03/29 02:15:31;;;;;;;36.28;15.68;;;;;;;;;;5056540;28;20442;-65
2022/03/29 02:17:57;;;;;;;32.70;15.77;;;;;;;;;;5072677;28;20021;-65
2022/03/29 02:20:24;;;;;;;41.22;16.15;;;;;;;;;;5070802;28;20028;-65
2022/03/29 02:22:50;;;;;;;35.63;16.95;;;;;;;;;;5072768;28;20032;-65
2022/03/29 02:25:16;;;;;;;29.90;14.23;;;;;;;;;;5071103;28;20020;-65
2022/03/29 02:27:44;;;;;;;47.35;17.75;;;;;;;;;;5072946;28;20102;-65
2022/03/29 02:30:11;;;;;;;34.65;15.68;;;;;;;;;;5072701;28;20022;-65
2022/03/29 02:32:38;;;;;;;36.50;14.43;;;;;;;;;;5072855;28;20036;-65
2022/03/29 02:35:04;;;;;;;29.45;13.35;;;;;;;;;;5072597;28;20496;-65
2022/03/29 02:37:30;;;;;;;33.90;13.93;;;;;;;;;;5072372;28;20074;-65
2022/03/29 02:39:56;;;;;;;25.85;14.25;;;;;;;;;;5072766;28;20036;-65
2022/03/29 02:42:23;;;;;;;37.42;14.63;;;;;;;;;;5072554;28;20038;-65
2022/03/29 02:44:49;;;;;;;31.10;14.23;;;;;;;;;;5072821;28;20495;-65
2022/03/29 02:47:15;;;;;;;28.90;16.92;;;;;;;;;;5072233;28;20029;-65
2022/03/29 02:49:41;;;;;;;34.28;14.93;;;;;;;;;;5072254;28;20021;-65
2022/03/29 02:52:07;;;;;;;34.50;15.13;;;;;;;;;;5071955;28;20059;-65
2022/03/29 02:54:35;;;;;;;30.75;14.27;;;;;;;;;;5072226;28;20028;-65
2022/03/29 02:57:01;;;;;;;42.13;16.85;;;;;;;;;;5072626;28;20029;-65
2022/03/29 02:59:27;;;;;;;35.83;16.33;;;;;;;;;;5072099;28;20028;-65
2022/03/29 03:01:54;;;;;;;40.80;17.80;;;;;;;;;;5071411;28;20142;-65
2022/03/29 03:04:20;;;;;;;34.83;15.27;;;;;;;;;;5071820;28;20103;-65
2022/03/29 03:06:46;;;;;;;35.97;15.52;;;;;;;;;;5072371;28;20054;-65
2022/03/29 03:09:12;;;;;;;33.08;14.80;;;;;;;;;;5071923;28;20027;-65
2022/03/29 03:11:39;;;;;;;33.13;15.60;;;;;;;;;;5072360;28;20244;-65
2022/03/29 03:14:05;;;;;;;34.13;14.75;;;;;;;;;;5071853;28;20035;-65
2022/03/29 03:16:32;;;;;;;36.05;15.27;;;;;;;;;;5072003;28;20380;-65
2022/03/29 03:18:58;;;;;;;34.47;15.15;;;;;;;;;;5071944;28;20052;-65
2022/03/29 03:21:24;;;;;;;36.33;15.45;;;;;;;;;;5071438;28;20135;-65
2022/03/29 03:23:51;;;;;;;38.28;14.38;;;;;;;;;;5072181;28;20029;-65
2022/03/29 03:26:17;;;;;;;27.40;13.90;;;;;;;;;;5071816;28;20380;-65
2022/03/29 03:28:43;;;;;;;34.90;14.30;;;;;;;;;;5072026;28;20028;-65
2022/03/29 03:31:09;;;;;;;31.90;14.40;;;;;;;;;;5071953;28;20485;-65
2022/03/29 03:33:35;;;;;;;31.05;15.18;;;;;;;;;;5071799;28;20365;-65
2022/03/29 03:36:01;;;;;;;27.55;14.93;;;;;;;;;;5071964;28;20023;-65
2022/03/29 03:38:27;;;;;;;35.88;16.95;;;;;;;;;;5071547;28;20032;-65
2022/03/29 03:40:53;;;;;;;28.77;14.88;;;;;;;;;;5072071;28;20043;-65
2022/03/29 03:43:19;;;;;;;40.75;17.10;;;;;;;;;;5071632;28;20021;-65
2022/03/29 03:45:46;;;;;;;36.35;17.23;;;;;;;;;;5071635;28;20071;-65
2022/03/29 03:48:12;;;;;;;33.90;15.07;;;;;;;;;;5071661;28;20028;-65
2022/03/29 03:50:38;;;;;;;38.10;16.08;;;;;;;;;;5071530;28;20029;-65
2022/03/29 03:53:04;;;;;;;33.55;15.10;;;;;;;;;;5071695;28;20547;-65
2022/03/29 03:55:31;;;;;;;36.72;16.52;;;;;;;;;;5071264;28;20035;-65
2022/03/29 03:57:57;;;;;;;38.25;16.08;;;;;;;;;;5071857;28;20016;-65
2022/03/29 04:00:24;;;;;;;34.75;15.68;;;;;;;;;;5071212;28;20037;-65
2022/03/29 04:02:50;;;;;;;34.22;16.30;;;;;;;;;;5072973;28;20413;-65
2022/03/29 04:05:17;;;;;;;35.80;17.13;;;;;;;;;;5075604;28;20070;-65
2022/03/29 04:07:43;;;;;;;43.63;17.80;;;;;;;;;;5075362;28;20388;-65
2022/03/29 04:10:10;;;;;;;31.60;16.65;;;;;;;;;;5075787;28;20021;-65
2022/03/29 04:12:36;;;;;;;35.67;15.75;;;;;;;;;;5075386;28;20033;-65
2022/03/29 04:15:03;;;;;;;30.20;15.02;;;;;;;;;;5075241;28;20063;-65
2022/03/29 04:17:29;;;;;;;37.92;17.05;;;;;;;;;;5075248;28;20033;-65
2022/03/29 04:19:55;;;;;;;37.17;15.75;;;;;;;;;;5075569;28;20032;-65
2022/03/29 04:22:21;;;;;;;32.63;14.80;;;;;;;;;;5075265;28;20040;-65
2022/03/29 04:24:48;;;;;;;33.63;16.50;;;;;;;;;;5075230;28;20028;-65
2022/03/29 04:27:14;;;;;;;30.95;16.75;;;;;;;;;;5075347;28;20021;-65
2022/03/29 04:29:40;;;;;;;34.55;16.13;;;;;;;;;;5074727;28;20712;-65
2022/03/29 04:32:07;;;;;;;41.53;15.98;;;;;;;;;;5075464;28;20392;-65
2022/03/29 04:34:34;;;;;;;34.60;17.27;;;;;;;;;;5074849;28;20044;-65
2022/03/29 04:37:00;;;;;;;32.03;14.45;;;;;;;;;;5075484;28;20024;-65
2022/03/29 04:39:26;;;;;;;27.55;14.80;;;;;;;;;;5074712;28;20408;-65
2022/03/29 04:41:53;;;;;;;41.10;16.58;;;;;;;;;;5074959;28;20031;-65
2022/03/29 04:44:19;;;;;;;36.70;15.32;;;;;;;;;;5074748;28;20024;-65
2022/03/29 04:46:45;;;;;;;30.98;14.27;;;;;;;;;;5074923;28;20403;-65
2022/03/29 04:49:12;;;;;;;36.33;15.23;;;;;;;;;;5074848;28;20127;-65
2022/03/29 04:51:38;;;;;;;34.97;16.92;;;;;;;;;;5072804;28;20043;-65
2022/03/29 04:54:04;;;;;;;34.88;16.13;;;;;;;;;;5060563;28;20078;-65
2022/03/29 04:56:30;;;;;;;36.70;17.52;;;;;;;;;;5074327;28;20097;-65
2022/03/29 04:58:56;;;;;;;34.50;16.92;;;;;;;;;;5071402;28;20115;-65
2022/03/29 05:01:23;;;;;;;37.75;17.50;;;;;;;;;;5070076;28;20040;-65
2022/03/29 05:03:49;;;;;;;30.52;15.23;;;;;;;;;;5073984;28;20059;-65
2022/03/29 05:06:15;;;;;;;38.13;15.98;;;;;;;;;;5074778;28;20032;-65
2022/03/29 05:08:42;;;;;;;37.58;16.15;;;;;;;;;;5074057;28;20511;-65
2022/03/29 05:11:08;;;;;;;31.08;14.30;;;;;;;;;;5074675;28;20081;-65
2022/03/29 05:13:35;;;;;;;33.28;14.88;;;;;;;;;;5068892;28;20066;-65
2022/03/29 05:16:01;;;;;;;33.28;14.90;;;;;;;;;;5074536;28;20496;-65
2022/03/29 05:18:27;;;;;;;31.65;14.38;;;;;;;;;;5066634;28;20064;-65
2022/03/29 05:20:53;;;;;;;36.95;15.52;;;;;;;;;;5066212;28;20048;-65
2022/03/29 05:23:20;;;;;;;29.65;15.00;;;;;;;;;;5072125;28;20017;-65
2022/03/29 05:25:46;;;;;;;28.48;14.80;;;;;;;;;;5073787;28;20021;-65
2022/03/29 05:28:12;;;;;;;35.58;15.93;;;;;;;;;;5073935;28;20035;-65
2022/03/29 05:30:38;;;;;;;28.45;13.93;;;;;;;;;;5074039;28;20020;-65
2022/03/29 05:33:04;;;;;;;26.67;14.48;;;;;;;;;;5074386;28;20024;-65
2022/03/29 05:35:32;;;;;;;30.33;14.90;;;;;;;;;;5073843;28;20028;-65
2022/03/29 05:37:59;;;;;;;33.33;15.15;;;;;;;;;;5071616;28;20036;-65
2022/03/29 05:40:26;;;;;;;42.67;16.05;;;;;;;;;;5071480;28;20465;-65
2022/03/29 05:42:53;;;;;;;40.28;16.38;;;;;;;;;;5068605;28;20597;-65
2022/03/29 05:45:19;;;;;;;38.35;15.95;;;;;;;;;;5065941;28;20126;-65
2022/03/29 05:50:31;;;;;;;33.20;14.40;;;;;;;;;;5071339;28;20041;-65
2022/03/29 05:52:58;;;;;;;26.08;14.90;;;;;;;;;;5079950;28;20020;-65
2022/03/29 05:55:24;;;;;;;28.45;14.18;;;;;;;;;;5074593;28;20538;-65
2022/03/29 05:57:51;;;;;;;27.38;14.55;;;;;;;;;;5064108;28;20115;-66
2022/03/29 06:00:18;;;;;;;25.90;15.52;;;;;;;;;;5063127;28;20021;-65
2022/03/29 06:02:44;;;;;;;31.33;14.98;;;;;;;;;;5072033;28;20028;-65
2022/03/29 06:05:10;;;;;;;37.88;14.75;;;;;;;;;;5073296;28;20024;-65
2022/03/29 06:07:36;;;;;;;40.15;15.90;;;;;;;;;;5069275;28;20044;-65
2022/03/29 06:10:04;;;;;;;34.17;14.50;;;;;;;;;;5069420;28;20028;-65
2022/03/29 06:12:30;;;;;;;27.67;15.32;;;;;;;;;;5081375;28;20498;-65
2022/03/29 06:14:56;;;;;;;31.30;14.50;;;;;;;;;;5079282;28;20127;-65
2022/03/29 06:17:23;;;;;;;37.80;15.18;;;;;;;;;;5078972;28;20442;-65
2022/03/29 06:19:49;;;;;;;33.47;14.27;;;;;;;;;;5066929;28;20082;-66
2022/03/29 06:22:15;;;;;;;33.35;14.45;;;;;;;;;;5073230;28;20070;-65
2022/03/29 06:24:41;;;;;;;35.92;15.77;;;;;;;;;;5072482;28;20028;-65
2022/03/29 06:27:07;;;;;;;35.55;15.73;;;;;;;;;;5069611;28;20107;-65
2022/03/29 06:29:36;;;;;;;32.65;16.63;;;;;;;;;;5080172;28;20060;-65
2022/03/29 06:32:03;;;;;;;39.78;16.35;;;;;;;;;;5071364;28;20030;-65
2022/03/29 06:34:29;;;;;;;35.40;18.77;;;;;;;;;;5069595;28;20025;-65
2022/03/29 06:36:56;;;;;;;34.42;16.52;;;;;;;;;;5071677;28;20047;-65
2022/03/29 06:39:22;;;;;;;43.22;18.10;;;;;;;;;;5072291;28;20473;-65
2022/03/29 06:41:49;;;;;;;37.67;17.65;;;;;;;;;;5071907;28;20040;-65
2022/03/29 06:44:17;;;;;;;34.47;15.82;;;;;;;;;;5071841;28;20017;-65
2022/03/29 06:46:43;;;;;;;43.03;16.15;;;;;;;;;;5057839;28;20539;-66
2022/03/29 06:49:13;;;;;;;32.17;14.25;;;;;;;;;;5067034;28;20055;-65
2022/03/29 06:51:40;;;;;;;35.20;14.40;;;;;;;;;;5064263;28;20024;-65
2022/03/29 06:54:06;;;;;;;33.97;14.93;;;;;;;;;;5068027;28;20067;-66
2022/03/29 06:56:32;;;;;;;31.00;15.05;;;;;;;;;;5065544;28;20155;-65
2022/03/29 06:59:00;;;;;;;31.55;15.15;;;;;;;;;;5068506;28;20029;-65
2022/03/29 07:01:27;;;;;;;48.67;17.15;;;;;;;;;;5071039;28;20024;-65
2022/03/29 07:03:57;;;;;;;34.08;16.33;;;;;;;;;;5067605;28;20031;-65
2022/03/29 07:06:25;;;;;;;38.97;16.23;;;;;;;;;;5069863;28;20021;-65
2022/03/29 07:11:36;;;;;;;32.72;16.00;;;;;;;;;;5069180;28;20024;-64
2022/03/29 07:14:06;;;;;;;36.60;16.08;;;;;;;;;;5081651;28;20032;-65
2022/03/29 07:16:32;;;;;;;33.95;16.55;;;;;;;;;;5068385;28;20037;-65
2022/03/29 07:18:59;;;;;;;46.85;17.98;;;;;;;;;;5072693;28;20039;-65
2022/03/29 07:21:25;;;;;;;37.15;15.45;;;;;;;;;;5064448;28;20053;-65
2022/03/29 07:23:51;;;;;;;37.53;15.32;;;;;;;;;;5071350;28;20483;-65
2022/03/29 07:26:18;;;;;;;29.17;14.55;;;;;;;;;;5069906;28;20123;-65
2022/03/29 07:28:44;;;;;;;33.67;16.73;;;;;;;;;;5066787;28;20025;-65
2022/03/29 07:31:10;;;;;;;33.03;15.73;;;;;;;;;;5068942;28;20112;-65
2022/03/29 07:33:36;;;;;;;34.00;16.15;;;;;;;;;;5071587;28;20036;-66
2022/03/29 07:36:05;;;;;;;31.83;15.50;;;;;;;;;;5070981;28;20036;-66
2022/03/29 07:38:31;;;;;;;36.65;16.65;;;;;;;;;;5073565;28;20461;-66
2022/03/29 07:40:57;;;;;;;40.10;17.00;;;;;;;;;;5072850;28;20477;-66
2022/03/29 07:43:23;;;;;;;39.05;17.63;;;;;;;;;;5066326;28;20028;-66
2022/03/29 07:45:49;;;;;;;40.00;18.30;;;;;;;;;;5069895;28;20025;-66
2022/03/29 07:48:16;;;;;;;44.38;17.52;;;;;;;;;;5065521;28;20024;-66
2022/03/29 07:50:42;;;;;;;34.67;17.88;;;;;;;;;;5065187;28;20029;-66
2022/03/29 07:53:09;;;;;;;32.28;16.80;;;;;;;;;;5075637;28;20218;-67
2022/03/29 07:55:40;;;;;;;32.95;16.48;;;;;;;;;;5070701;28;20020;-66
2022/03/29 07:58:06;;;;;;;34.33;17.13;;;;;;;;;;5069907;28;20032;-67
2022/03/29 08:00:32;;;;;;;34.25;16.92;;;;;;;;;;5067412;28;20017;-66
2022/03/29 08:03:02;;;;;;;33.58;18.52;;;;;;;;;;5065591;28;20029;-66
2022/03/29 08:05:29;;;;;;;37.55;18.42;;;;;;;;;;5068417;28;20033;-67
2022/03/29 08:07:57;;;;;;;38.20;18.15;;;;;;;;;;5079466;28;20475;-66
2022/03/29 08:10:23;;;;;;;39.05;17.08;;;;;;;;;;5071779;28;20563;-66
2022/03/29 08:12:49;;;;;;;32.92;16.70;;;;;;;;;;5069561;28;20123;-66
2022/03/29 08:15:16;;;;;;;40.95;17.20;;;;;;;;;;5071054;28;20037;-66
2022/03/29 08:17:42;;;;;;;39.78;16.95;;;;;;;;;;5066078;28;20091;-67
2022/03/29 08:20:08;;;;;;;39.47;17.90;;;;;;;;;;5080594;28;20123;-66
2022/03/29 08:22:35;;;;;;;47.03;16.40;;;;;;;;;;5077272;28;20036;-66
2022/03/29 08:25:02;;;;;;;40.95;16.35;;;;;;;;;;5076511;28;20031;-66
2022/03/29 08:27:28;;;;;;;44.20;15.98;;;;;;;;;;5065730;28;20036;-66
2022/03/29 08:29:54;;;;;;;33.10;15.40;;;;;;;;;;5071898;28;20036;-67
2022/03/29 08:32:21;;;;;;;39.53;16.30;;;;;;;;;;5061054;28;20029;-67
2022/03/29 08:34:47;;;;;;;39.05;15.43;;;;;;;;;;5063036;28;20063;-66
2022/03/29 08:37:13;;;;;;;33.88;14.98;;;;;;;;;;5072868;28;20028;-66
2022/03/29 08:39:39;;;;;;;39.45;15.48;;;;;;;;;;5081101;28;20118;-67
2022/03/29 08:42:05;;;;;;;30.85;14.00;;;;;;;;;;5063176;28;20027;-66
2022/03/29 08:44:33;;;;;;;35.47;15.93;;;;;;;;;;5068923;28;20036;-66
2022/03/29 08:46:59;;;;;;;36.80;15.25;;;;;;;;;;5073231;28;20032;-66
2022/03/29 08:49:25;;;;;;;38.65;16.00;;;;;;;;;;5076937;28;20028;-67
2022/03/29 08:51:51;;;;;;;38.50;15.98;;;;;;;;;;5070817;28;20401;-67
2022/03/29 08:54:19;;;;;;;34.40;14.73;;;;;;;;;;5073314;28;20086;-66
2022/03/29 08:56:46;;;;;;;36.60;15.10;;;;;;;;;;5075775;28;20033;-66
2022/03/29 08:59:12;;;;;;;33.22;16.02;;;;;;;;;;5073070;28;20028;-66
2022/03/29 09:01:38;;;;;;;39.65;15.18;;;;;;;;;;5074049;28;20036;-66
2022/03/29 09:04:04;;;;;;;37.67;16.40;;;;;;;;;;5077795;28;20025;-67
2022/03/29 09:06:31;;;;;;;46.72;14.45;;;;;;;;;;5071274;28;20401;-66
2022/03/29 09:08:57;;;;;;;38.90;15.70;;;;;;;;;;5068526;28;20024;-67
2022/03/29 09:11:23;;;;;;;39.08;14.73;;;;;;;;;;5074070;28;20013;-67
2022/03/29 09:14:05;;;;;;;37.13;15.38;;;;;;;;;;5067270;28;20040;-67
2022/03/29 09:16:34;;;;;;;40.78;14.82;;;;;;;;;;5071462;28;20553;-66
2022/03/29 09:19:01;;;;;;;45.50;16.45;;;;;;;;;;5082986;28;20365;-67
2022/03/29 09:21:28;;;;;;;40.72;16.15;;;;;;;;;;5063674;28;20044;-67
2022/03/29 09:24:07;;;;;;;46.13;18.90;;;;;;;;;;5074165;28;20051;-67
2022/03/29 09:26:33;;;;;;;44.17;17.77;;;;;;;;;;5068625;28;20029;-67
2022/03/29 09:29:00;;;;;;;50.03;18.75;;;;;;;;;;5082186;28;20067;-67
2022/03/29 09:31:29;;;;;;;46.08;17.33;;;;;;;;;;5071036;28;20094;-67
2022/03/29 09:34:16;;;;;;;45.33;17.90;;;;;;;;;;5077319;28;20044;-66
2022/03/29 09:36:52;;;;;;;48.85;18.88;;;;;;;;;;5072511;28;20047;-67
2022/03/29 09:39:34;;;;;;;46.67;18.13;;;;;;;;;;5091124;28;20086;-67
2022/03/29 09:42:01;;;;;;;48.73;18.53;;;;;;;;;;5063544;28;20032;-67
2022/03/29 09:44:43;;;;;;;46.90;17.80;;;;;;;;;;5068187;28;20052;-67
2022/03/29 09:47:11;;;;;;;48.08;19.02;;;;;;;;;;5078306;28;20035;-67
2022/03/29 09:49:50;;;;;;;50.08;18.75;;;;;;;;;;5075879;28;20028;-67
2022/03/29 09:52:17;;;;;;;55.60;19.38;;;;;;;;;;5076333;28;20036;-67
2022/03/29 09:55:03;;;;;;;48.63;20.15;;;;;;;;;;5074500;28;20032;-67
2022/03/29 09:57:35;;;;;;;50.72;20.35;;;;;;;;;;5075912;28;20492;-67
2022/03/29 10:00:02;;;;;;;53.38;21.67;;;;;;;;;;5075598;28;20077;-67
2022/03/29 10:02:40;;;;;;;51.25;21.25;;;;;;;;;;5064195;28;20036;-66
2022/03/29 10:05:07;;;;;;;46.28;18.70;;;;;;;;;;5071599;28;20036;-66
2022/03/29 10:09:25;;;;;;;40.30;15.60;;;;;;;;;;5072644;28;20511;-66
2022/03/29 10:10:38;;;;;;;40.88;16.33;;;;;;;;;;5058981;28;20457;-66
2022/03/29 10:13:05;;;;;;;45.40;16.23;;;;;;;;;;5067333;28;20082;-66
2022/03/29 10:15:31;;;;;;;42.40;16.77;;;;;;;;;;5069382;28;20037;-66
2022/03/29 10:17:57;;;;;;;50.20;18.40;;;;;;;;;;5070714;28;20028;-66
2022/03/29 10:20:24;;;;;;;42.58;18.25;;;;;;;;;;5057341;28;20027;-66
2022/03/29 10:22:50;;;;;;;50.15;20.40;;;;;;;;;;5072281;28;20062;-66
2022/03/29 10:25:17;;;;;;;46.03;18.27;;;;;;;;;;5072090;28;20033;-66
2022/03/29 10:27:43;;;;;;;45.33;19.52;;;;;;;;;;5070100;28;20396;-66
2022/03/29 10:30:11;;;;;;;56.13;19.80;;;;;;;;;;5070383;28;20483;-66
2022/03/29 10:32:37;;;;;;;43.65;20.25;;;;;;;;;;5065553;28;20051;-66
2022/03/29 10:35:05;;;;;;;57.65;22.05;;;;;;;;;;5066914;28;20040;-66
2022/03/29 10:37:50;;;;;;;49.38;21.55;;;;;;;;;;5071085;28;20480;-66
2022/03/29 10:40:34;;;;;;;59.17;23.60;;;;;;;;;;5069179;28;20500;-66
2022/03/29 10:43:20;;;;;;;56.08;21.63;;;;;;;;;;5070942;28;20037;-66
2022/03/29 10:45:46;;;;;;;53.63;23.25;;;;;;;;;;5065980;28;20020;-66
2022/03/29 10:48:13;;;;;;;49.72;21.98;;;;;;;;;;5069754;28;20104;-66
2022/03/29 10:50:54;;;;;;;59.50;23.42;;;;;;;;;;5068697;28;20385;-66
2022/03/29 10:53:35;;;;;;;60.97;26.52;;;;;;;;;;5069472;28;20477;-66
2022/03/29 10:56:15;;;;;;;71.72;27.42;;;;;;;;;;5064523;28;20016;-66
2022/03/29 10:58:59;;;;;;;77.30;26.80;;;;;;;;;;5067134;28;20046;-66
2022/03/29 11:01:25;;;;;;;71.13;28.98;;;;;;;;;;5070456;28;20043;-66
2022/03/29 11:04:01;;;;;;;78.47;29.65;;;;;;;;;;5070842;28;20193;-66
2022/03/29 11:06:28;;;;;;;74.55;28.38;;;;;;;;;;5070638;28;20385;-66
2022/03/29 11:09:03;;;;;;;82.55;31.73;;;;;;;;;;5071138;28;20021;-66
2022/03/29 11:11:37;;;;;;;86.63;32.30;;;;;;;;;;5069675;28;20063;-66
2022/03/29 11:14:22;;;;;;;74.28;29.42;;;;;;;;;;5070687;28;20044;-66
2022/03/29 11:16:48;;;;;;;80.35;30.20;;;;;;;;;;5064300;28;20066;-66
2022/03/29 11:19:34;;;;;;;76.32;30.42;;;;;;;;;;5065523;28;20064;-66
2022/03/29 11:22:20;;;;;;;81.60;30.27;;;;;;;;;;5066829;28;20127;-66
2022/03/29 11:24:46;;;;;;;87.20;31.95;;;;;;;;;;5063220;28;20025;-66
2022/03/29 11:27:21;;;;;;;77.50;30.17;;;;;;;;;;5063913;28;20024;-66
2022/03/29 11:29:47;;;;;;;80.97;31.20;;;;;;;;;;5068741;28;20029;-66
2022/03/29 11:32:15;;;;;;;79.25;30.55;;;;;;;;;;5068628;28;20036;-66
2022/03/29 11:34:41;;;;;;;67.30;28.48;;;;;;;;;;5069792;28;20087;-66
2022/03/29 11:37:08;;;;;;;67.35;27.95;;;;;;;;;;5070685;28;20107;-66
2022/03/29 11:39:34;;;;;;;71.70;27.40;;;;;;;;;;5060991;28;20123;-66
2022/03/29 11:42:00;;;;;;;68.50;27.00;;;;;;;;;;5061921;28;20036;-66
2022/03/29 11:44:27;;;;;;;73.70;28.20;;;;;;;;;;5067800;28;20028;-66
2022/03/29 11:46:55;;;;;;;65.20;29.25;;;;;;;;;;5069183;28;20392;-66
2022/03/29 11:49:22;;;;;;;72.43;28.02;;;;;;;;;;5066578;28;20021;-66
2022/03/29 11:52:05;;;;;;;76.07;27.00;;;;;;;;;;5069784;28;20031;-66
2022/03/29 11:54:38;;;;;;;68.65;28.02;;;;;;;;;;5065088;28;20385;-66
2022/03/29 11:57:13;;;;;;;70.82;27.75;;;;;;;;;;5066588;28;20029;-66
2022/03/29 11:59:39;;;;;;;72.32;26.73;;;;;;;;;;5070078;28;20384;-66
2022/03/29 12:02:05;;;;;;;65.40;26.48;;;;;;;;;;5070741;28;20103;-66
2022/03/29 12:04:34;;;;;;;64.68;26.77;;;;;;;;;;5065247;28;20505;-66
2022/03/29 12:07:00;;;;;;;66.45;27.55;;;;;;;;;;5069801;28;20143;-66
2022/03/29 12:09:27;;;;;;;68.25;27.73;;;;;;;;;;5069720;28;20059;-66
2022/03/29 12:11:56;;;;;;;74.13;28.25;;;;;;;;;;5070617;28;20020;-66
2022/03/29 12:14:23;;;;;;;75.28;27.55;;;;;;;;;;5069836;28;20044;-66
2022/03/29 12:16:54;;;;;;;65.50;25.88;;;;;;;;;;5069269;28;20040;-66
2022/03/29 12:19:28;;;;;;;59.45;25.65;;;;;;;;;;5070378;28;20047;-66
2022/03/29 12:22:12;;;;;;;70.03;26.35;;;;;;;;;;5069570;28;20040;-66
2022/03/29 12:24:39;;;;;;;83.05;25.30;;;;;;;;;;5070487;28;20035;-66
2022/03/29 12:27:07;;;;;;;76.60;27.42;;;;;;;;;;5070285;28;20017;-66
2022/03/29 12:29:35;;;;;;;73.97;27.30;;;;;;;;;;5073262;28;20119;-66
2022/03/29 12:32:03;;;;;;;81.70;29.15;;;;;;;;;;5068732;28;20043;-66
2022/03/29 12:34:30;;;;;;;67.53;27.63;;;;;;;;;;5065084;28;20127;-66
2022/03/29 12:36:57;;;;;;;66.63;27.55;;;;;;;;;;5070324;28;20107;-66
2022/03/29 12:39:24;;;;;;;76.57;28.92;;;;;;;;;;5074939;28;20396;-66
2022/03/29 12:41:54;;;;;;;67.50;27.95;;;;;;;;;;5073451;28;20040;-66
2022/03/29 12:44:29;;;;;;;68.63;28.15;;;;;;;;;;5064855;28;20555;-66
2022/03/29 12:46:56;;;;;;;69.80;28.42;;;;;;;;;;5073230;28;20028;-66
2022/03/29 12:49:22;;;;;;;74.38;28.10;;;;;;;;;;5070040;28;20021;-66
2022/03/29 12:52:02;;;;;;;72.80;29.52;;;;;;;;;;5072245;28;20120;-66
2022/03/29 12:54:34;;;;;;;80.30;31.38;;;;;;;;;;5070710;28;20499;-66
2022/03/29 12:57:00;;;;;;;77.93;31.33;;;;;;;;;;5068676;28;20070;-66
2022/03/29 12:59:37;;;;;;;79.90;31.17;;;;;;;;;;5074635;28;20116;-66
2022/03/29 13:02:10;;;;;;;80.75;31.55;;;;;;;;;;5066313;28;20036;-66
2022/03/29 13:04:44;;;;;;;79.80;32.33;;;;;;;;;;5071066;28;20037;-66
2022/03/29 13:07:10;;;;;;;86.72;30.75;;;;;;;;;;5070978;28;20472;-66
2022/03/29 13:09:37;;;;;;;85.82;34.58;;;;;;;;;;5070141;28;20470;-66
2022/03/29 13:12:14;;;;;;;80.18;32.38;;;;;;;;;;5066105;28;20404;-66
2022/03/29 13:14:41;;;;;;;90.78;33.33;;;;;;;;;;5073269;28;20381;-66
2022/03/29 13:17:07;;;;;;;90.15;35.33;;;;;;;;;;5074414;28;20109;-66
2022/03/29 13:19:34;;;;;;;96.85;34.28;;;;;;;;;;5071194;28;20040;-66
2022/03/29 13:22:01;;;;;;;91.40;35.75;;;;;;;;;;5072892;28;20051;-66
2022/03/29 13:24:41;;;;;;;91.18;34.22;;;;;;;;;;5072393;28;20031;-66
2022/03/29 13:27:07;;;;;;;91.57;37.55;;;;;;;;;;5073567;28;20376;-66
2022/03/29 13:29:34;;;;;;;87.95;35.20;;;;;;;;;;5072937;28;20141;-66
2022/03/29 13:32:01;;;;;;;91.35;35.65;;;;;;;;;;5074286;28;20119;-66
2022/03/29 13:34:27;;;;;;;86.15;36.42;;;;;;;;;;5060576;28;20128;-66
2022/03/29 13:36:54;;;;;;;98.85;35.70;;;;;;;;;;5054219;28;20440;-66
2022/03/29 13:39:20;;;;;;;84.10;34.45;;;;;;;;;;5054249;28;20504;-66
2022/03/29 13:41:47;;;;;;;89.30;34.10;;;;;;;;;;5066858;28;20024;-66
2022/03/29 13:44:13;;;;;;;85.45;33.85;;;;;;;;;;5074081;28;20028;-66
2022/03/29 13:46:39;;;;;;;90.07;34.60;;;;;;;;;;5074239;28;20028;-66
2022/03/29 13:49:06;;;;;;;83.85;35.17;;;;;;;;;;5074291;28;20021;-66
2022/03/29 13:51:32;;;;;;;82.10;31.40;;;;;;;;;;5073227;28;20056;-66
2022/03/29 13:53:58;;;;;;;81.45;31.00;;;;;;;;;;5066948;28;20029;-66
2022/03/29 13:56:31;;;;;;;84.18;32.33;;;;;;;;;;5082038;28;20024;-66
2022/03/29 13:58:57;;;;;;;;;;;;;;;;;;5075898;28;20021;-66
2022/03/29 14:01:23;;;;;;;73.80;30.13;;;;;;;;;;5080870;28;20315;-66
2022/03/29 14:03:49;;;;;;;71.85;29.13;;;;;;;;;;5088748;28;20429;-66
2022/03/29 14:06:15;;;;;;;80.45;31.45;;;;;;;;;;5085917;28;20033;-66
2022/03/29 14:08:41;;;;;;;76.65;30.23;;;;;;;;;;5072337;28;20457;-66
2022/03/29 14:11:08;;;;;;;69.63;30.98;;;;;;;;;;5089681;28;20047;-66
2022/03/29 14:13:36;;;;;;;75.10;32.47;;;;;;;;;;5091001;28;20376;-66
2022/03/29 14:16:02;;;;;;;74.53;29.77;;;;;;;;;;5087884;28;20019;-66
2022/03/29 14:18:30;;;;;;;75.68;31.50;;;;;;;;;;5085719;28;20106;-66
2022/03/29 14:20:58;;;;;;;75.57;31.65;;;;;;;;;;5089909;28;20016;-66
2022/03/29 14:23:25;;;;;;;71.80;32.28;;;;;;;;;;5089843;28;20043;-66
2022/03/29 14:25:51;;;;;;;72.88;32.35;;;;;;;;;;5075565;28;20490;-66
2022/03/29 14:28:18;;;;;;;69.43;32.42;;;;;;;;;;5067374;28;20028;-66
2022/03/29 14:30:48;;;;;;;79.70;29.38;;;;;;;;;;5080923;28;20066;-66